sensor_id;sensor_type;location;lat;lon;timestamp;P1;durP1;ratioP1;P2;durP2;ratioP2
52776;SDS011;38656;54.260;20.822;2023-11-21T00:01:42;13.63;;;10.05;;
52776;SDS011;38656;54.260;20.822;2023-11-21T00:04:09;12.85;;;8.80;;
52776;SDS011;38656;54.260;20.822;2023-11-21T00:06:36;39.10;;;20.42;;
52776;SDS011;38656;54.260;20.822;2023-11-21T00:09:02;24.35;;;15.35;;
52776;SDS011;38656;54.260;20.822;2023-11-21T00:11:30;64.65;;;36.65;;
52776;SDS011;38656;54.260;20.822;2023-11-21T00:13:56;18.65;;;12.68;;
52776;SDS011;38656;54.260;20.822;2023-11-21T00:16:23;34.28;;;22.08;;
52776;SDS011;38656;54.260;20.822;2023-11-21T00:18:50;45.78;;;28.55;;
52776;SDS011;38656;54.260;20.822;2023-11-21T00:21:16;14.55;;;11.15;;
52776;SDS011;38656;54.260;20.822;2023-11-21T00:23:42;34.65;;;22.85;;
52776;SDS011;38656;54.260;20.822;2023-11-21T00:26:09;26.95;;;18.50;;
52776;SDS011;38656;54.260;20.822;2023-11-21T00:28:35;26.95;;;16.13;;
52776;SDS011;38656;54.260;20.822;2023-11-21T00:31:01;47.05;;;30.55;;
52776;SDS011;38656;54.260;20.822;2023-11-21T00:33:29;38.90;;;26.42;;
52776;SDS011;38656;54.260;20.822;2023-11-21T00:35:55;15.88;;;11.95;;
52776;SDS011;38656;54.260;20.822;2023-11-21T00:38:21;25.48;;;16.67;;
52776;SDS011;38656;54.260;20.822;2023-11-21T00:40:48;13.73;;;6.70;;
52776;SDS011;38656;54.260;20.822;2023-11-21T00:43:14;14.10;;;7.32;;
52776;SDS011;38656;54.260;20.822;2023-11-21T00:45:40;9.30;;;7.03;;
52776;SDS011;38656;54.260;20.822;2023-11-21T00:48:06;13.23;;;8.18;;
52776;SDS011;38656;54.260;20.822;2023-11-21T00:50:33;15.13;;;10.38;;
52776;SDS011;38656;54.260;20.822;2023-11-21T00:52:59;9.93;;;7.05;;
52776;SDS011;38656;54.260;20.822;2023-11-21T00:55:27;20.27;;;13.20;;
52776;SDS011;38656;54.260;20.822;2023-11-21T00:57:54;14.23;;;9.68;;
52776;SDS011;38656;54.260;20.822;2023-11-21T01:00:21;8.48;;;6.88;;
52776;SDS011;38656;54.260;20.822;2023-11-21T01:02:48;9.52;;;6.35;;
52776;SDS011;38656;54.260;20.822;2023-11-21T01:05:14;6.97;;;5.95;;
52776;SDS011;38656;54.260;20.822;2023-11-21T01:07:40;7.15;;;6.45;;
52776;SDS011;38656;54.260;20.822;2023-11-21T01:10:07;11.05;;;6.28;;
52776;SDS011;38656;54.260;20.822;2023-11-21T01:12:34;7.55;;;5.88;;
52776;SDS011;38656;54.260;20.822;2023-11-21T01:15:02;15.82;;;5.32;;
52776;SDS011;38656;54.260;20.822;2023-11-21T01:17:34;7.25;;;5.47;;
52776;SDS011;38656;54.260;20.822;2023-11-21T01:20:01;7.57;;;5.68;;
52776;SDS011;38656;54.260;20.822;2023-11-21T01:22:28;7.25;;;5.35;;
52776;SDS011;38656;54.260;20.822;2023-11-21T01:24:54;5.57;;;4.95;;
52776;SDS011;38656;54.260;20.822;2023-11-21T01:27:21;5.97;;;4.30;;
52776;SDS011;38656;54.260;20.822;2023-11-21T01:29:47;5.93;;;5.10;;
52776;SDS011;38656;54.260;20.822;2023-11-21T01:32:13;6.50;;;5.25;;
52776;SDS011;38656;54.260;20.822;2023-11-21T01:34:39;7.25;;;5.30;;
52776;SDS011;38656;54.260;20.822;2023-11-21T01:37:06;12.93;;;6.15;;
52776;SDS011;38656;54.260;20.822;2023-11-21T01:39:32;6.00;;;4.82;;
52776;SDS011;38656;54.260;20.822;2023-11-21T01:41:58;5.90;;;5.03;;
52776;SDS011;38656;54.260;20.822;2023-11-21T01:44:24;5.88;;;5.20;;
52776;SDS011;38656;54.260;20.822;2023-11-21T01:46:50;5.65;;;4.90;;
52776;SDS011;38656;54.260;20.822;2023-11-21T01:49:17;6.38;;;5.28;;
52776;SDS011;38656;54.260;20.822;2023-11-21T01:51:46;5.35;;;4.57;;
52776;SDS011;38656;54.260;20.822;2023-11-21T01:54:15;5.53;;;5.03;;
52776;SDS011;38656;54.260;20.822;2023-11-21T01:56:43;10.05;;;5.07;;
52776;SDS011;38656;54.260;20.822;2023-11-21T01:59:14;8.07;;;6.20;;
52776;SDS011;38656;54.260;20.822;2023-11-21T02:01:46;4.83;;;4.43;;
52776;SDS011;38656;54.260;20.822;2023-11-21T02:04:13;5.80;;;4.68;;
52776;SDS011;38656;54.260;20.822;2023-11-21T02:06:39;6.45;;;5.20;;
52776;SDS011;38656;54.260;20.822;2023-11-21T02:09:06;5.55;;;5.00;;
52776;SDS011;38656;54.260;20.822;2023-11-21T02:11:33;5.72;;;3.65;;
52776;SDS011;38656;54.260;20.822;2023-11-21T02:14:00;9.77;;;4.88;;
52776;SDS011;38656;54.260;20.822;2023-11-21T02:16:26;5.68;;;4.78;;
52776;SDS011;38656;54.260;20.822;2023-11-21T02:18:56;5.82;;;5.22;;
52776;SDS011;38656;54.260;20.822;2023-11-21T02:21:23;6.57;;;5.15;;
52776;SDS011;38656;54.260;20.822;2023-11-21T02:23:50;7.00;;;5.25;;
52776;SDS011;38656;54.260;20.822;2023-11-21T02:26:17;7.45;;;5.38;;
52776;SDS011;38656;54.260;20.822;2023-11-21T02:28:43;7.13;;;5.43;;
52776;SDS011;38656;54.260;20.822;2023-11-21T02:31:09;10.60;;;6.32;;
52776;SDS011;38656;54.260;20.822;2023-11-21T02:33:35;16.63;;;7.85;;
52776;SDS011;38656;54.260;20.822;2023-11-21T02:36:02;5.97;;;4.88;;
52776;SDS011;38656;54.260;20.822;2023-11-21T02:38:28;8.13;;;5.63;;
52776;SDS011;38656;54.260;20.822;2023-11-21T02:40:56;8.30;;;6.43;;
52776;SDS011;38656;54.260;20.822;2023-11-21T02:43:24;8.82;;;6.68;;
52776;SDS011;38656;54.260;20.822;2023-11-21T02:45:50;8.52;;;5.88;;
52776;SDS011;38656;54.260;20.822;2023-11-21T02:48:16;7.57;;;6.82;;
52776;SDS011;38656;54.260;20.822;2023-11-21T02:50:42;8.20;;;6.10;;
52776;SDS011;38656;54.260;20.822;2023-11-21T02:53:09;6.47;;;5.00;;
52776;SDS011;38656;54.260;20.822;2023-11-21T02:55:35;21.00;;;6.70;;
52776;SDS011;38656;54.260;20.822;2023-11-21T02:58:02;7.32;;;5.88;;
52776;SDS011;38656;54.260;20.822;2023-11-21T03:00:31;11.48;;;7.97;;
52776;SDS011;38656;54.260;20.822;2023-11-21T03:02:57;11.60;;;7.50;;
52776;SDS011;38656;54.260;20.822;2023-11-21T03:05:23;9.55;;;6.40;;
52776;SDS011;38656;54.260;20.822;2023-11-21T03:07:49;10.48;;;7.03;;
52776;SDS011;38656;54.260;20.822;2023-11-21T03:10:16;10.38;;;6.53;;
52776;SDS011;38656;54.260;20.822;2023-11-21T03:12:42;7.45;;;6.07;;
52776;SDS011;38656;54.260;20.822;2023-11-21T03:15:09;8.73;;;6.35;;
52776;SDS011;38656;54.260;20.822;2023-11-21T03:17:35;8.18;;;5.95;;
52776;SDS011;38656;54.260;20.822;2023-11-21T03:20:02;11.00;;;6.80;;
52776;SDS011;38656;54.260;20.822;2023-11-21T03:22:29;9.52;;;6.57;;
52776;SDS011;38656;54.260;20.822;2023-11-21T03:24:55;6.82;;;5.07;;
52776;SDS011;38656;54.260;20.822;2023-11-21T03:27:21;8.45;;;6.25;;
52776;SDS011;38656;54.260;20.822;2023-11-21T03:29:47;9.60;;;7.32;;
52776;SDS011;38656;54.260;20.822;2023-11-21T03:32:14;10.15;;;7.88;;
52776;SDS011;38656;54.260;20.822;2023-11-21T03:34:55;10.63;;;8.25;;
52776;SDS011;38656;54.260;20.822;2023-11-21T03:37:22;14.40;;;8.02;;
52776;SDS011;38656;54.260;20.822;2023-11-21T03:39:49;11.70;;;8.10;;
52776;SDS011;38656;54.260;20.822;2023-11-21T03:42:16;6.45;;;5.30;;
52776;SDS011;38656;54.260;20.822;2023-11-21T03:44:42;11.52;;;7.55;;
52776;SDS011;38656;54.260;20.822;2023-11-21T03:47:08;12.60;;;7.82;;
52776;SDS011;38656;54.260;20.822;2023-11-21T03:49:34;9.38;;;7.45;;
52776;SDS011;38656;54.260;20.822;2023-11-21T03:52:00;7.93;;;5.95;;
52776;SDS011;38656;54.260;20.822;2023-11-21T03:54:27;9.15;;;5.90;;
52776;SDS011;38656;54.260;20.822;2023-11-21T03:56:53;10.48;;;6.63;;
52776;SDS011;38656;54.260;20.822;2023-11-21T03:59:19;8.25;;;5.85;;
52776;SDS011;38656;54.260;20.822;2023-11-21T04:01:46;9.00;;;6.32;;
52776;SDS011;38656;54.260;20.822;2023-11-21T04:04:12;6.35;;;4.90;;
52776;SDS011;38656;54.260;20.822;2023-11-21T04:06:38;5.28;;;4.72;;
52776;SDS011;38656;54.260;20.822;2023-11-21T04:09:04;7.93;;;5.25;;
52776;SDS011;38656;54.260;20.822;2023-11-21T04:11:30;9.90;;;7.00;;
52776;SDS011;38656;54.260;20.822;2023-11-21T04:13:57;7.88;;;6.65;;
52776;SDS011;38656;54.260;20.822;2023-11-21T04:16:23;6.18;;;5.55;;
52776;SDS011;38656;54.260;20.822;2023-11-21T04:18:49;6.22;;;5.43;;
52776;SDS011;38656;54.260;20.822;2023-11-21T04:21:16;6.38;;;5.22;;
52776;SDS011;38656;54.260;20.822;2023-11-21T04:23:42;6.95;;;5.18;;
52776;SDS011;38656;54.260;20.822;2023-11-21T04:26:08;5.63;;;4.88;;
52776;SDS011;38656;54.260;20.822;2023-11-21T04:28:34;6.20;;;5.35;;
52776;SDS011;38656;54.260;20.822;2023-11-21T04:31:00;8.27;;;5.75;;
52776;SDS011;38656;54.260;20.822;2023-11-21T04:33:27;6.57;;;5.75;;
52776;SDS011;38656;54.260;20.822;2023-11-21T04:35:54;8.15;;;6.75;;
52776;SDS011;38656;54.260;20.822;2023-11-21T04:38:20;12.77;;;8.80;;
52776;SDS011;38656;54.260;20.822;2023-11-21T04:40:46;7.13;;;4.95;;
52776;SDS011;38656;54.260;20.822;2023-11-21T04:43:12;8.57;;;5.43;;
52776;SDS011;38656;54.260;20.822;2023-11-21T04:45:38;6.68;;;5.15;;
52776;SDS011;38656;54.260;20.822;2023-11-21T04:48:06;7.60;;;4.97;;
52776;SDS011;38656;54.260;20.822;2023-11-21T04:50:33;16.10;;;7.97;;
52776;SDS011;38656;54.260;20.822;2023-11-21T04:52:59;7.40;;;4.82;;
52776;SDS011;38656;54.260;20.822;2023-11-21T04:55:25;10.23;;;5.75;;
52776;SDS011;38656;54.260;20.822;2023-11-21T04:57:53;15.10;;;6.57;;
52776;SDS011;38656;54.260;20.822;2023-11-21T05:00:19;6.13;;;5.05;;
52776;SDS011;38656;54.260;20.822;2023-11-21T05:02:46;5.97;;;4.47;;
52776;SDS011;38656;54.260;20.822;2023-11-21T05:05:12;5.10;;;3.45;;
52776;SDS011;38656;54.260;20.822;2023-11-21T05:07:39;5.65;;;4.82;;
52776;SDS011;38656;54.260;20.822;2023-11-21T05:10:06;8.10;;;6.28;;
52776;SDS011;38656;54.260;20.822;2023-11-21T05:12:36;9.35;;;6.07;;
52776;SDS011;38656;54.260;20.822;2023-11-21T05:15:06;8.48;;;6.65;;
52776;SDS011;38656;54.260;20.822;2023-11-21T05:17:39;10.98;;;7.47;;
52776;SDS011;38656;54.260;20.822;2023-11-21T05:20:12;8.00;;;6.47;;
52776;SDS011;38656;54.260;20.822;2023-11-21T05:22:42;6.35;;;5.13;;
52776;SDS011;38656;54.260;20.822;2023-11-21T05:25:09;10.15;;;7.47;;
52776;SDS011;38656;54.260;20.822;2023-11-21T05:27:36;10.45;;;8.15;;
52776;SDS011;38656;54.260;20.822;2023-11-21T05:30:02;10.13;;;8.13;;
52776;SDS011;38656;54.260;20.822;2023-11-21T05:32:31;11.52;;;8.20;;
52776;SDS011;38656;54.260;20.822;2023-11-21T05:34:58;27.65;;;22.15;;
52776;SDS011;38656;54.260;20.822;2023-11-21T05:37:24;15.50;;;12.32;;
52776;SDS011;38656;54.260;20.822;2023-11-21T05:39:52;10.77;;;9.68;;
52776;SDS011;38656;54.260;20.822;2023-11-21T05:42:21;15.95;;;12.50;;
52776;SDS011;38656;54.260;20.822;2023-11-21T05:44:48;24.20;;;13.27;;
52776;SDS011;38656;54.260;20.822;2023-11-21T05:47:14;24.02;;;12.13;;
52776;SDS011;38656;54.260;20.822;2023-11-21T05:49:41;24.95;;;14.95;;
52776;SDS011;38656;54.260;20.822;2023-11-21T05:52:07;20.67;;;12.77;;
52776;SDS011;38656;54.260;20.822;2023-11-21T05:54:33;33.92;;;17.65;;
52776;SDS011;38656;54.260;20.822;2023-11-21T05:56:59;15.68;;;9.20;;
52776;SDS011;38656;54.260;20.822;2023-11-21T05:59:26;19.25;;;13.98;;
52776;SDS011;38656;54.260;20.822;2023-11-21T06:01:52;47.50;;;27.60;;
52776;SDS011;38656;54.260;20.822;2023-11-21T06:04:18;34.35;;;22.08;;
52776;SDS011;38656;54.260;20.822;2023-11-21T06:06:48;13.00;;;11.65;;
52776;SDS011;38656;54.260;20.822;2023-11-21T06:09:16;18.23;;;13.43;;
52776;SDS011;38656;54.260;20.822;2023-11-21T06:11:42;17.20;;;14.30;;
52776;SDS011;38656;54.260;20.822;2023-11-21T06:14:08;24.60;;;22.05;;
52776;SDS011;38656;54.260;20.822;2023-11-21T06:16:36;13.93;;;12.55;;
52776;SDS011;38656;54.260;20.822;2023-11-21T06:19:02;13.88;;;9.88;;
52776;SDS011;38656;54.260;20.822;2023-11-21T06:21:30;12.05;;;9.55;;
52776;SDS011;38656;54.260;20.822;2023-11-21T06:23:56;25.38;;;11.85;;
52776;SDS011;38656;54.260;20.822;2023-11-21T06:26:22;16.90;;;11.60;;
52776;SDS011;38656;54.260;20.822;2023-11-21T06:28:50;29.63;;;15.20;;
52776;SDS011;38656;54.260;20.822;2023-11-21T06:31:17;10.90;;;8.30;;
52776;SDS011;38656;54.260;20.822;2023-11-21T06:33:44;18.75;;;11.98;;
52776;SDS011;38656;54.260;20.822;2023-11-21T06:36:10;9.15;;;7.72;;
52776;SDS011;38656;54.260;20.822;2023-11-21T06:38:37;14.98;;;9.27;;
52776;SDS011;38656;54.260;20.822;2023-11-21T06:41:03;11.10;;;7.68;;
52776;SDS011;38656;54.260;20.822;2023-11-21T06:43:29;15.02;;;10.02;;
52776;SDS011;38656;54.260;20.822;2023-11-21T06:45:56;11.27;;;8.93;;
52776;SDS011;38656;54.260;20.822;2023-11-21T06:48:25;9.93;;;7.35;;
52776;SDS011;38656;54.260;20.822;2023-11-21T06:50:51;13.82;;;8.68;;
52776;SDS011;38656;54.260;20.822;2023-11-21T06:53:17;28.17;;;17.20;;
52776;SDS011;38656;54.260;20.822;2023-11-21T06:55:44;29.35;;;20.17;;
52776;SDS011;38656;54.260;20.822;2023-11-21T06:58:10;151.00;;;54.35;;
52776;SDS011;38656;54.260;20.822;2023-11-21T07:00:39;190.48;;;58.05;;
52776;SDS011;38656;54.260;20.822;2023-11-21T07:03:05;102.50;;;37.47;;
52776;SDS011;38656;54.260;20.822;2023-11-21T07:05:31;30.40;;;17.67;;
52776;SDS011;38656;54.260;20.822;2023-11-21T07:07:57;24.15;;;16.85;;
52776;SDS011;38656;54.260;20.822;2023-11-21T07:10:29;16.42;;;11.93;;
52776;SDS011;38656;54.260;20.822;2023-11-21T07:12:56;43.47;;;28.58;;
52776;SDS011;38656;54.260;20.822;2023-11-21T07:15:22;23.52;;;17.95;;
52776;SDS011;38656;54.260;20.822;2023-11-21T07:17:50;39.28;;;32.85;;
52776;SDS011;38656;54.260;20.822;2023-11-21T07:20:19;15.90;;;14.15;;
52776;SDS011;38656;54.260;20.822;2023-11-21T07:22:46;25.05;;;19.88;;
52776;SDS011;38656;54.260;20.822;2023-11-21T07:25:12;26.70;;;20.90;;
52776;SDS011;38656;54.260;20.822;2023-11-21T07:27:38;20.02;;;17.70;;
52776;SDS011;38656;54.260;20.822;2023-11-21T07:30:05;27.75;;;24.80;;
52776;SDS011;38656;54.260;20.822;2023-11-21T07:32:33;65.13;;;49.53;;
52776;SDS011;38656;54.260;20.822;2023-11-21T07:34:59;53.30;;;42.97;;
52776;SDS011;38656;54.260;20.822;2023-11-21T07:37:25;45.65;;;35.70;;
52776;SDS011;38656;54.260;20.822;2023-11-21T07:39:54;31.63;;;27.80;;
52776;SDS011;38656;54.260;20.822;2023-11-21T07:42:22;35.90;;;30.55;;
52776;SDS011;38656;54.260;20.822;2023-11-21T07:44:51;28.23;;;22.98;;
52776;SDS011;38656;54.260;20.822;2023-11-21T07:47:17;18.80;;;16.08;;
52776;SDS011;38656;54.260;20.822;2023-11-21T07:49:43;15.63;;;13.05;;
52776;SDS011;38656;54.260;20.822;2023-11-21T07:52:11;18.98;;;17.15;;
52776;SDS011;38656;54.260;20.822;2023-11-21T07:54:38;16.20;;;13.05;;
52776;SDS011;38656;54.260;20.822;2023-11-21T07:57:05;11.30;;;10.02;;
52776;SDS011;38656;54.260;20.822;2023-11-21T07:59:32;13.02;;;10.10;;
52776;SDS011;38656;54.260;20.822;2023-11-21T08:01:58;14.48;;;12.15;;
52776;SDS011;38656;54.260;20.822;2023-11-21T08:04:24;9.80;;;7.53;;
52776;SDS011;38656;54.260;20.822;2023-11-21T08:06:51;12.20;;;10.60;;
52776;SDS011;38656;54.260;20.822;2023-11-21T08:09:17;11.77;;;9.00;;
52776;SDS011;38656;54.260;20.822;2023-11-21T08:11:43;9.95;;;8.52;;
52776;SDS011;38656;54.260;20.822;2023-11-21T08:14:09;11.55;;;9.57;;
52776;SDS011;38656;54.260;20.822;2023-11-21T08:16:35;9.65;;;7.40;;
52776;SDS011;38656;54.260;20.822;2023-11-21T08:19:01;37.95;;;27.52;;
52776;SDS011;38656;54.260;20.822;2023-11-21T08:21:28;21.80;;;14.13;;
52776;SDS011;38656;54.260;20.822;2023-11-21T08:23:54;20.33;;;15.13;;
52776;SDS011;38656;54.260;20.822;2023-11-21T08:26:21;37.00;;;17.55;;
52776;SDS011;38656;54.260;20.822;2023-11-21T08:28:50;71.70;;;28.38;;
52776;SDS011;38656;54.260;20.822;2023-11-21T08:31:25;46.83;;;24.73;;
52776;SDS011;38656;54.260;20.822;2023-11-21T08:33:51;48.97;;;23.38;;
52776;SDS011;38656;54.260;20.822;2023-11-21T08:36:20;51.35;;;29.08;;
52776;SDS011;38656;54.260;20.822;2023-11-21T08:38:49;63.85;;;37.10;;
52776;SDS011;38656;54.260;20.822;2023-11-21T08:41:17;37.90;;;23.70;;
52776;SDS011;38656;54.260;20.822;2023-11-21T08:43:47;27.92;;;18.85;;
52776;SDS011;38656;54.260;20.822;2023-11-21T08:46:14;32.38;;;20.55;;
52776;SDS011;38656;54.260;20.822;2023-11-21T08:48:42;37.33;;;21.63;;
52776;SDS011;38656;54.260;20.822;2023-11-21T08:51:09;34.38;;;19.63;;
52776;SDS011;38656;54.260;20.822;2023-11-21T08:53:39;49.50;;;33.38;;
52776;SDS011;38656;54.260;20.822;2023-11-21T08:56:05;33.63;;;21.15;;
52776;SDS011;38656;54.260;20.822;2023-11-21T08:58:33;30.83;;;18.65;;
52776;SDS011;38656;54.260;20.822;2023-11-21T09:01:01;35.60;;;21.33;;
52776;SDS011;38656;54.260;20.822;2023-11-21T09:03:32;26.88;;;18.60;;
52776;SDS011;38656;54.260;20.822;2023-11-21T09:05:59;27.55;;;15.60;;
52776;SDS011;38656;54.260;20.822;2023-11-21T09:08:26;24.65;;;16.02;;
52776;SDS011;38656;54.260;20.822;2023-11-21T09:10:54;19.73;;;14.52;;
52776;SDS011;38656;54.260;20.822;2023-11-21T09:13:20;19.58;;;12.30;;
52776;SDS011;38656;54.260;20.822;2023-11-21T09:15:46;13.05;;;11.05;;
52776;SDS011;38656;54.260;20.822;2023-11-21T09:18:14;17.13;;;14.77;;
52776;SDS011;38656;54.260;20.822;2023-11-21T09:20:41;27.02;;;18.10;;
52776;SDS011;38656;54.260;20.822;2023-11-21T09:23:09;30.75;;;21.30;;
52776;SDS011;38656;54.260;20.822;2023-11-21T09:25:35;33.15;;;24.77;;
52776;SDS011;38656;54.260;20.822;2023-11-21T09:28:03;33.80;;;26.80;;
52776;SDS011;38656;54.260;20.822;2023-11-21T09:30:33;13.23;;;8.50;;
52776;SDS011;38656;54.260;20.822;2023-11-21T09:33:00;16.63;;;12.80;;
52776;SDS011;38656;54.260;20.822;2023-11-21T09:35:27;16.35;;;10.95;;
52776;SDS011;38656;54.260;20.822;2023-11-21T09:37:53;13.20;;;8.95;;
52776;SDS011;38656;54.260;20.822;2023-11-21T09:40:21;12.38;;;10.88;;
52776;SDS011;38656;54.260;20.822;2023-11-21T09:45:59;11.60;;;8.93;;
52776;SDS011;38656;54.260;20.822;2023-11-21T09:48:21;9.50;;;7.22;;
52776;SDS011;38656;54.260;20.822;2023-11-21T09:50:50;13.23;;;10.27;;
52776;SDS011;38656;54.260;20.822;2023-11-21T09:53:19;8.30;;;6.78;;
52776;SDS011;38656;54.260;20.822;2023-11-21T09:55:46;7.80;;;7.00;;
52776;SDS011;38656;54.260;20.822;2023-11-21T09:58:16;12.60;;;10.00;;
52776;SDS011;38656;54.260;20.822;2023-11-21T10:00:45;20.02;;;15.80;;
52776;SDS011;38656;54.260;20.822;2023-11-21T10:03:13;15.05;;;9.50;;
52776;SDS011;38656;54.260;20.822;2023-11-21T10:05:42;10.95;;;7.57;;
52776;SDS011;38656;54.260;20.822;2023-11-21T10:08:11;10.13;;;6.20;;
52776;SDS011;38656;54.260;20.822;2023-11-21T10:10:38;38.40;;;15.20;;
52776;SDS011;38656;54.260;20.822;2023-11-21T10:13:11;19.75;;;11.13;;
52776;SDS011;38656;54.260;20.822;2023-11-21T10:15:41;15.15;;;11.07;;
52776;SDS011;38656;54.260;20.822;2023-11-21T10:18:13;12.00;;;9.35;;
52776;SDS011;38656;54.260;20.822;2023-11-21T10:20:40;12.40;;;8.02;;
52776;SDS011;38656;54.260;20.822;2023-11-21T10:23:08;18.92;;;15.63;;
52776;SDS011;38656;54.260;20.822;2023-11-21T10:25:36;23.67;;;13.80;;
52776;SDS011;38656;54.260;20.822;2023-11-21T10:28:03;14.35;;;10.98;;
52776;SDS011;38656;54.260;20.822;2023-11-21T10:30:36;6.85;;;5.15;;
52776;SDS011;38656;54.260;20.822;2023-11-21T10:33:06;9.82;;;8.52;;
52776;SDS011;38656;54.260;20.822;2023-11-21T10:35:43;21.73;;;14.90;;
52776;SDS011;38656;54.260;20.822;2023-11-21T10:38:18;11.70;;;7.20;;
52776;SDS011;38656;54.260;20.822;2023-11-21T10:40:47;24.30;;;14.90;;
52776;SDS011;38656;54.260;20.822;2023-11-21T10:43:14;18.00;;;12.55;;
52776;SDS011;38656;54.260;20.822;2023-11-21T10:45:42;9.20;;;7.40;;
52776;SDS011;38656;54.260;20.822;2023-11-21T10:48:14;13.25;;;9.20;;
52776;SDS011;38656;54.260;20.822;2023-11-21T10:50:42;9.43;;;6.60;;
52776;SDS011;38656;54.260;20.822;2023-11-21T10:53:09;6.88;;;6.18;;
52776;SDS011;38656;54.260;20.822;2023-11-21T10:55:37;15.73;;;11.63;;
52776;SDS011;38656;54.260;20.822;2023-11-21T10:58:04;75.65;;;29.48;;
52776;SDS011;38656;54.260;20.822;2023-11-21T11:00:33;38.55;;;21.65;;
52776;SDS011;38656;54.260;20.822;2023-11-21T11:03:00;13.18;;;9.20;;
52776;SDS011;38656;54.260;20.822;2023-11-21T11:05:27;24.08;;;15.90;;
52776;SDS011;38656;54.260;20.822;2023-11-21T11:08:03;20.90;;;15.52;;
52776;SDS011;38656;54.260;20.822;2023-11-21T11:10:32;11.73;;;10.48;;
52776;SDS011;38656;54.260;20.822;2023-11-21T11:13:00;12.95;;;11.57;;
52776;SDS011;38656;54.260;20.822;2023-11-21T11:15:27;9.55;;;8.40;;
52776;SDS011;38656;54.260;20.822;2023-11-21T11:17:54;11.90;;;8.65;;
52776;SDS011;38656;54.260;20.822;2023-11-21T11:20:25;12.00;;;7.75;;
52776;SDS011;38656;54.260;20.822;2023-11-21T11:23:04;9.85;;;7.68;;
52776;SDS011;38656;54.260;20.822;2023-11-21T11:29:03;17.00;;;10.27;;
52776;SDS011;38656;54.260;20.822;2023-11-21T11:31:50;8.20;;;5.53;;
52776;SDS011;38656;54.260;20.822;2023-11-21T11:34:29;13.18;;;9.27;;
52776;SDS011;38656;54.260;20.822;2023-11-21T11:36:59;17.15;;;11.00;;
52776;SDS011;38656;54.260;20.822;2023-11-21T11:39:36;37.72;;;10.93;;
52776;SDS011;38656;54.260;20.822;2023-11-21T11:42:05;9.55;;;7.85;;
52776;SDS011;38656;54.260;20.822;2023-11-21T11:47:24;11.82;;;10.73;;
52776;SDS011;38656;54.260;20.822;2023-11-21T11:55:09;8.40;;;7.47;;
52776;SDS011;38656;54.260;20.822;2023-11-21T11:57:37;14.05;;;9.18;;
52776;SDS011;38656;54.260;20.822;2023-11-21T12:02:40;7.15;;;5.25;;
52776;SDS011;38656;54.260;20.822;2023-11-21T12:05:13;8.00;;;7.10;;
52776;SDS011;38656;54.260;20.822;2023-11-21T12:07:42;27.52;;;20.33;;
52776;SDS011;38656;54.260;20.822;2023-11-21T12:10:11;23.88;;;17.25;;
52776;SDS011;38656;54.260;20.822;2023-11-21T12:12:47;11.30;;;6.13;;
52776;SDS011;38656;54.260;20.822;2023-11-21T12:15:14;22.98;;;16.55;;
52776;SDS011;38656;54.260;20.822;2023-11-21T12:17:41;28.27;;;20.45;;
52776;SDS011;38656;54.260;20.822;2023-11-21T12:20:09;19.40;;;15.38;;
52776;SDS011;38656;54.260;20.822;2023-11-21T12:22:41;18.80;;;16.80;;
52776;SDS011;38656;54.260;20.822;2023-11-21T12:25:08;18.40;;;12.57;;
52776;SDS011;38656;54.260;20.822;2023-11-21T12:27:35;10.93;;;6.72;;
52776;SDS011;38656;54.260;20.822;2023-11-21T12:30:01;34.28;;;24.35;;
52776;SDS011;38656;54.260;20.822;2023-11-21T12:32:27;38.22;;;26.83;;
52776;SDS011;38656;54.260;20.822;2023-11-21T12:34:53;20.55;;;12.75;;
52776;SDS011;38656;54.260;20.822;2023-11-21T12:37:20;40.17;;;22.10;;
52776;SDS011;38656;54.260;20.822;2023-11-21T12:39:47;41.20;;;23.33;;
52776;SDS011;38656;54.260;20.822;2023-11-21T12:42:14;130.20;;;52.97;;
52776;SDS011;38656;54.260;20.822;2023-11-21T12:44:41;88.60;;;39.67;;
52776;SDS011;38656;54.260;20.822;2023-11-21T12:47:10;48.20;;;30.15;;
52776;SDS011;38656;54.260;20.822;2023-11-21T12:49:41;25.63;;;17.13;;
52776;SDS011;38656;54.260;20.822;2023-11-21T12:52:09;18.98;;;15.35;;
52776;SDS011;38656;54.260;20.822;2023-11-21T12:54:36;36.17;;;25.45;;
52776;SDS011;38656;54.260;20.822;2023-11-21T12:57:03;34.92;;;23.92;;
52776;SDS011;38656;54.260;20.822;2023-11-21T12:59:33;54.47;;;36.25;;
52776;SDS011;38656;54.260;20.822;2023-11-21T13:02:00;51.78;;;33.25;;
52776;SDS011;38656;54.260;20.822;2023-11-21T13:04:31;40.30;;;25.88;;
52776;SDS011;38656;54.260;20.822;2023-11-21T13:07:03;16.85;;;12.30;;
52776;SDS011;38656;54.260;20.822;2023-11-21T13:09:38;18.83;;;13.88;;
52776;SDS011;38656;54.260;20.822;2023-11-21T13:12:04;27.25;;;16.95;;
52776;SDS011;38656;54.260;20.822;2023-11-21T13:14:33;29.15;;;17.00;;
52776;SDS011;38656;54.260;20.822;2023-11-21T13:17:00;25.83;;;17.52;;
52776;SDS011;38656;54.260;20.822;2023-11-21T13:19:26;57.88;;;36.42;;
52776;SDS011;38656;54.260;20.822;2023-11-21T13:21:52;14.60;;;10.73;;
52776;SDS011;38656;54.260;20.822;2023-11-21T13:24:19;26.27;;;13.60;;
52776;SDS011;38656;54.260;20.822;2023-11-21T13:26:46;49.67;;;25.90;;
52776;SDS011;38656;54.260;20.822;2023-11-21T13:29:14;47.95;;;28.10;;
52776;SDS011;38656;54.260;20.822;2023-11-21T13:31:41;20.33;;;11.85;;
52776;SDS011;38656;54.260;20.822;2023-11-21T13:34:07;33.55;;;18.25;;
52776;SDS011;38656;54.260;20.822;2023-11-21T13:36:33;37.40;;;21.58;;
52776;SDS011;38656;54.260;20.822;2023-11-21T13:39:00;36.70;;;18.52;;
52776;SDS011;38656;54.260;20.822;2023-11-21T13:41:32;61.65;;;32.35;;
52776;SDS011;38656;54.260;20.822;2023-11-21T13:43:59;66.40;;;36.00;;
52776;SDS011;38656;54.260;20.822;2023-11-21T13:46:40;45.67;;;31.77;;
52776;SDS011;38656;54.260;20.822;2023-11-21T13:49:07;33.22;;;23.55;;
52776;SDS011;38656;54.260;20.822;2023-11-21T13:51:35;48.65;;;29.55;;
52776;SDS011;38656;54.260;20.822;2023-11-21T13:54:09;49.50;;;27.20;;
52776;SDS011;38656;54.260;20.822;2023-11-21T13:56:36;36.90;;;24.42;;
52776;SDS011;38656;54.260;20.822;2023-11-21T13:59:03;50.03;;;28.10;;
52776;SDS011;38656;54.260;20.822;2023-11-21T14:01:50;45.38;;;23.65;;
52776;SDS011;38656;54.260;20.822;2023-11-21T14:04:21;52.95;;;28.17;;
52776;SDS011;38656;54.260;20.822;2023-11-21T14:07:07;40.67;;;17.52;;
52776;SDS011;38656;54.260;20.822;2023-11-21T14:09:51;56.83;;;29.33;;
52776;SDS011;38656;54.260;20.822;2023-11-21T14:12:17;89.45;;;40.25;;
52776;SDS011;38656;54.260;20.822;2023-11-21T14:14:44;47.53;;;29.65;;
52776;SDS011;38656;54.260;20.822;2023-11-21T14:17:12;33.28;;;22.27;;
52776;SDS011;38656;54.260;20.822;2023-11-21T14:19:38;91.63;;;52.45;;
52776;SDS011;38656;54.260;20.822;2023-11-21T14:22:08;35.28;;;28.10;;
52776;SDS011;38656;54.260;20.822;2023-11-21T14:24:35;97.28;;;57.95;;
52776;SDS011;38656;54.260;20.822;2023-11-21T14:27:02;82.05;;;52.65;;
52776;SDS011;38656;54.260;20.822;2023-11-21T14:29:31;43.97;;;33.33;;
52776;SDS011;38656;54.260;20.822;2023-11-21T14:32:03;28.35;;;21.73;;
52776;SDS011;38656;54.260;20.822;2023-11-21T14:34:30;77.10;;;53.35;;
52776;SDS011;38656;54.260;20.822;2023-11-21T14:36:57;38.35;;;30.17;;
52776;SDS011;38656;54.260;20.822;2023-11-21T14:39:23;41.45;;;35.03;;